sensor_id;sensor_type;location;lat;lon;timestamp;temperature;humidity
28530;DHT22;15737;49.760;6.632;2022-12-10T00:01:10;1.90;99.90
28530;DHT22;15737;49.760;6.632;2022-12-10T00:03:36;2.00;99.90
28530;DHT22;15737;49.760;6.632;2022-12-10T00:06:03;2.00;99.90
28530;DHT22;15737;49.760;6.632;2022-12-10T00:08:29;2.00;99.90
28530;DHT22;15737;49.760;6.632;2022-12-10T00:10:55;1.90;99.90
28530;DHT22;15737;49.760;6.632;2022-12-10T00:13:21;1.90;99.90
28530;DHT22;15737;49.760;6.632;2022-12-10T00:15:46;1.90;99.90
28530;DHT22;15737;49.760;6.632;2022-12-10T00:18:12;1.90;99.90
28530;DHT22;15737;49.760;6.632;2022-12-10T00:20:37;1.80;99.90
28530;DHT22;15737;49.760;6.632;2022-12-10T00:23:03;1.80;99.90
28530;DHT22;15737;49.760;6.632;2022-12-10T00:25:29;1.70;99.90
28530;DHT22;15737;49.760;6.632;2022-12-10T00:27:55;1.60;99.90
28530;DHT22;15737;49.760;6.632;2022-12-10T00:30:20;1.50;99.90
28530;DHT22;15737;49.760;6.632;2022-12-10T00:32:46;1.50;99.90
28530;DHT22;15737;49.760;6.632;2022-12-10T00:35:11;1.50;99.90
28530;DHT22;15737;49.760;6.632;2022-12-10T00:37:37;1.60;99.90
28530;DHT22;15737;49.760;6.632;2022-12-10T00:40:03;1.60;99.90
28530;DHT22;15737;49.760;6.632;2022-12-10T00:42:28;1.60;99.90
28530;DHT22;15737;49.760;6.632;2022-12-10T00:44:54;1.60;99.90
28530;DHT22;15737;49.760;6.632;2022-12-10T00:47:19;1.60;99.90
28530;DHT22;15737;49.760;6.632;2022-12-10T00:49:46;1.50;99.90
28530;DHT22;15737;49.760;6.632;2022-12-10T00:52:11;1.50;99.90
28530;DHT22;15737;49.760;6.632;2022-12-10T00:54:37;1.60;99.90
28530;DHT22;15737;49.760;6.632;2022-12-10T00:57:03;1.70;99.90
28530;DHT22;15737;49.760;6.632;2022-12-10T00:59:28;1.70;99.90
28530;DHT22;15737;49.760;6.632;2022-12-10T01:04:22;1.70;99.90
28530;DHT22;15737;49.760;6.632;2022-12-10T01:06:53;1.70;99.90
28530;DHT22;15737;49.760;6.632;2022-12-10T01:09:21;1.70;99.90
28530;DHT22;15737;49.760;6.632;2022-12-10T01:11:48;1.60;99.90
28530;DHT22;15737;49.760;6.632;2022-12-10T01:14:17;1.60;99.90
28530;DHT22;15737;49.760;6.632;2022-12-10T01:16:44;1.60;99.90
28530;DHT22;15737;49.760;6.632;2022-12-10T01:19:10;1.60;99.90
28530;DHT22;15737;49.760;6.632;2022-12-10T01:21:36;1.60;99.90
28530;DHT22;15737;49.760;6.632;2022-12-10T01:24:03;1.70;99.90
28530;DHT22;15737;49.760;6.632;2022-12-10T01:26:31;1.80;99.90
28530;DHT22;15737;49.760;6.632;2022-12-10T01:28:57;1.90;99.90
28530;DHT22;15737;49.760;6.632;2022-12-10T01:31:26;1.90;99.90
28530;DHT22;15737;49.760;6.632;2022-12-10T01:33:53;1.90;99.90
28530;DHT22;15737;49.760;6.632;2022-12-10T01:36:21;1.80;99.90
28530;DHT22;15737;49.760;6.632;2022-12-10T01:38:47;1.90;99.90
28530;DHT22;15737;49.760;6.632;2022-12-10T01:41:22;1.80;99.90
28530;DHT22;15737;49.760;6.632;2022-12-10T01:43:53;1.70;99.90
28530;DHT22;15737;49.760;6.632;2022-12-10T01:46:19;1.70;99.90
28530;DHT22;15737;49.760;6.632;2022-12-10T01:48:45;1.60;99.90
28530;DHT22;15737;49.760;6.632;2022-12-10T01:51:12;1.60;99.90
28530;DHT22;15737;49.760;6.632;2022-12-10T01:53:40;1.50;99.90
28530;DHT22;15737;49.760;6.632;2022-12-10T01:56:06;1.50;99.90
28530;DHT22;15737;49.760;6.632;2022-12-10T01:58:31;1.50;99.90
28530;DHT22;15737;49.760;6.632;2022-12-10T02:06:58;1.50;99.90
28530;DHT22;15737;49.760;6.632;2022-12-10T02:15:08;1.40;99.90
28530;DHT22;15737;49.760;6.632;2022-12-10T02:17:46;1.40;99.90
28530;DHT22;15737;49.760;6.632;2022-12-10T02:20:24;1.50;99.90
28530;DHT22;15737;49.760;6.632;2022-12-10T02:22:59;1.40;99.90
28530;DHT22;15737;49.760;6.632;2022-12-10T02:25:46;1.40;99.90
28530;DHT22;15737;49.760;6.632;2022-12-10T02:28:33;1.40;99.90
28530;DHT22;15737;49.760;6.632;2022-12-10T02:31:03;1.50;99.90
28530;DHT22;15737;49.760;6.632;2022-12-10T02:33:31;1.50;99.90
28530;DHT22;15737;49.760;6.632;2022-12-10T02:35:57;1.50;99.90
28530;DHT22;15737;49.760;6.632;2022-12-10T02:38:28;1.40;99.90
28530;DHT22;15737;49.760;6.632;2022-12-10T02:40:58;1.40;99.90
28530;DHT22;15737;49.760;6.632;2022-12-10T02:43:27;1.40;99.90
28530;DHT22;15737;49.760;6.632;2022-12-10T02:45:56;1.40;99.90
28530;DHT22;15737;49.760;6.632;2022-12-10T02:48:23;1.40;99.90
28530;DHT22;15737;49.760;6.632;2022-12-10T02:50:49;1.40;99.90
28530;DHT22;15737;49.760;6.632;2022-12-10T02:53:14;1.30;99.90
28530;DHT22;15737;49.760;6.632;2022-12-10T02:56:19;1.40;99.90
28530;DHT22;15737;49.760;6.632;2022-12-10T03:02:07;1.30;99.90
28530;DHT22;15737;49.760;6.632;2022-12-10T03:07:18;1.30;99.90
28530;DHT22;15737;49.760;6.632;2022-12-10T03:10:02;1.30;99.90
28530;DHT22;15737;49.760;6.632;2022-12-10T03:12:32;1.30;99.90
28530;DHT22;15737;49.760;6.632;2022-12-10T03:15:03;1.30;99.90
28530;DHT22;15737;49.760;6.632;2022-12-10T03:17:31;1.30;99.90
28530;DHT22;15737;49.760;6.632;2022-12-10T03:19:59;1.40;99.90
28530;DHT22;15737;49.760;6.632;2022-12-10T03:22:26;1.40;99.90
28530;DHT22;15737;49.760;6.632;2022-12-10T03:24:53;1.30;99.90
28530;DHT22;15737;49.760;6.632;2022-12-10T03:27:20;1.30;99.90
28530;DHT22;15737;49.760;6.632;2022-12-10T03:29:49;1.30;99.90
28530;DHT22;15737;49.760;6.632;2022-12-10T03:32:16;1.30;99.90
28530;DHT22;15737;49.760;6.632;2022-12-10T03:34:44;1.20;99.90
28530;DHT22;15737;49.760;6.632;2022-12-10T03:37:11;1.20;99.90
28530;DHT22;15737;49.760;6.632;2022-12-10T03:39:37;1.10;99.90
28530;DHT22;15737;49.760;6.632;2022-12-10T03:42:04;1.10;99.90
28530;DHT22;15737;49.760;6.632;2022-12-10T03:44:32;1.20;99.90
28530;DHT22;15737;49.760;6.632;2022-12-10T03:46:58;1.10;99.90
28530;DHT22;15737;49.760;6.632;2022-12-10T03:49:24;1.10;99.90
28530;DHT22;15737;49.760;6.632;2022-12-10T03:51:49;1.10;99.90
28530;DHT22;15737;49.760;6.632;2022-12-10T03:54:15;1.10;99.90
28530;DHT22;15737;49.760;6.632;2022-12-10T03:56:40;1.10;99.90
28530;DHT22;15737;49.760;6.632;2022-12-10T03:59:06;1.00;99.90
28530;DHT22;15737;49.760;6.632;2022-12-10T04:01:31;1.00;99.90
28530;DHT22;15737;49.760;6.632;2022-12-10T04:03:57;0.90;99.90
28530;DHT22;15737;49.760;6.632;2022-12-10T04:06:23;0.80;99.90
28530;DHT22;15737;49.760;6.632;2022-12-10T04:08:48;0.80;99.90
28530;DHT22;15737;49.760;6.632;2022-12-10T04:11:15;0.80;99.90
28530;DHT22;15737;49.760;6.632;2022-12-10T04:13:41;0.80;99.90
28530;DHT22;15737;49.760;6.632;2022-12-10T04:16:26;0.70;99.90
28530;DHT22;15737;49.760;6.632;2022-12-10T04:21:47;0.80;99.90
28530;DHT22;15737;49.760;6.632;2022-12-10T04:24:34;0.90;99.90
28530;DHT22;15737;49.760;6.632;2022-12-10T04:27:24;1.00;99.90
28530;DHT22;15737;49.760;6.632;2022-12-10T04:29:51;1.00;99.90
28530;DHT22;15737;49.760;6.632;2022-12-10T04:32:17;1.00;99.90
28530;DHT22;15737;49.760;6.632;2022-12-10T04:34:43;1.00;99.90
28530;DHT22;15737;49.760;6.632;2022-12-10T04:37:09;0.90;99.90
28530;DHT22;15737;49.760;6.632;2022-12-10T04:39:36;0.90;99.90
28530;DHT22;15737;49.760;6.632;2022-12-10T04:42:02;0.90;99.90
28530;DHT22;15737;49.760;6.632;2022-12-10T04:44:28;0.90;99.90
28530;DHT22;15737;49.760;6.632;2022-12-10T04:46:53;0.80;99.90
28530;DHT22;15737;49.760;6.632;2022-12-10T04:49:19;0.70;99.90
28530;DHT22;15737;49.760;6.632;2022-12-10T04:51:45;0.60;99.90
28530;DHT22;15737;49.760;6.632;2022-12-10T04:54:10;0.50;99.90
28530;DHT22;15737;49.760;6.632;2022-12-10T04:56:36;0.50;99.90
28530;DHT22;15737;49.760;6.632;2022-12-10T04:59:03;0.50;99.90
28530;DHT22;15737;49.760;6.632;2022-12-10T05:01:29;0.60;99.90
28530;DHT22;15737;49.760;6.632;2022-12-10T05:04:01;0.60;99.90
28530;DHT22;15737;49.760;6.632;2022-12-10T05:06:28;0.60;99.90
28530;DHT22;15737;49.760;6.632;2022-12-10T05:08:54;0.60;99.90
28530;DHT22;15737;49.760;6.632;2022-12-10T05:11:22;0.70;99.90
28530;DHT22;15737;49.760;6.632;2022-12-10T05:13:48;0.60;99.90
28530;DHT22;15737;49.760;6.632;2022-12-10T05:16:16;0.70;99.90
28530;DHT22;15737;49.760;6.632;2022-12-10T05:18:42;0.90;99.90
28530;DHT22;15737;49.760;6.632;2022-12-10T05:21:28;1.00;99.90
28530;DHT22;15737;49.760;6.632;2022-12-10T05:24:14;1.00;99.90
28530;DHT22;15737;49.760;6.632;2022-12-10T05:26:40;1.00;99.90
28530;DHT22;15737;49.760;6.632;2022-12-10T05:29:06;1.00;99.90
28530;DHT22;15737;49.760;6.632;2022-12-10T05:31:31;1.00;99.90
28530;DHT22;15737;49.760;6.632;2022-12-10T05:33:57;1.00;99.90
28530;DHT22;15737;49.760;6.632;2022-12-10T05:36:26;1.00;99.90
28530;DHT22;15737;49.760;6.632;2022-12-10T05:38:52;1.00;99.90
28530;DHT22;15737;49.760;6.632;2022-12-10T05:41:20;1.00;99.90
28530;DHT22;15737;49.760;6.632;2022-12-10T05:43:47;1.00;99.90
28530;DHT22;15737;49.760;6.632;2022-12-10T05:46:15;1.00;99.90
28530;DHT22;15737;49.760;6.632;2022-12-10T05:48:41;1.00;99.90
28530;DHT22;15737;49.760;6.632;2022-12-10T05:51:09;0.90;99.90
28530;DHT22;15737;49.760;6.632;2022-12-10T05:53:35;0.90;99.90
28530;DHT22;15737;49.760;6.632;2022-12-10T05:56:02;0.80;99.90
28530;DHT22;15737;49.760;6.632;2022-12-10T05:58:29;0.80;99.90
28530;DHT22;15737;49.760;6.632;2022-12-10T06:00:55;0.80;99.90
28530;DHT22;15737;49.760;6.632;2022-12-10T06:03:21;0.70;99.90
28530;DHT22;15737;49.760;6.632;2022-12-10T06:05:46;0.60;99.90
28530;DHT22;15737;49.760;6.632;2022-12-10T06:08:12;0.60;99.90
28530;DHT22;15737;49.760;6.632;2022-12-10T06:10:37;0.70;99.90
28530;DHT22;15737;49.760;6.632;2022-12-10T06:13:04;0.70;99.90
28530;DHT22;15737;49.760;6.632;2022-12-10T06:15:30;0.70;99.90
28530;DHT22;15737;49.760;6.632;2022-12-10T06:18:01;0.70;99.90
28530;DHT22;15737;49.760;6.632;2022-12-10T06:20:26;0.70;99.90
28530;DHT22;15737;49.760;6.632;2022-12-10T06:22:52;0.70;99.90
28530;DHT22;15737;49.760;6.632;2022-12-10T06:25:18;0.60;99.90
28530;DHT22;15737;49.760;6.632;2022-12-10T06:27:44;0.70;99.90
28530;DHT22;15737;49.760;6.632;2022-12-10T06:30:10;0.80;99.90
28530;DHT22;15737;49.760;6.632;2022-12-10T06:32:36;0.90;99.90
28530;DHT22;15737;49.760;6.632;2022-12-10T06:35:02;1.00;99.90
28530;DHT22;15737;49.760;6.632;2022-12-10T06:37:28;1.00;99.90
28530;DHT22;15737;49.760;6.632;2022-12-10T06:39:53;1.00;99.90
28530;DHT22;15737;49.760;6.632;2022-12-10T06:42:20;0.90;99.90
28530;DHT22;15737;49.760;6.632;2022-12-10T06:44:46;0.90;99.90
28530;DHT22;15737;49.760;6.632;2022-12-10T06:47:15;0.90;99.90
28530;DHT22;15737;49.760;6.632;2022-12-10T06:49:40;1.00;99.90
28530;DHT22;15737;49.760;6.632;2022-12-10T06:52:06;1.00;99.90
28530;DHT22;15737;49.760;6.632;2022-12-10T06:54:32;1.00;99.90
28530;DHT22;15737;49.760;6.632;2022-12-10T06:56:57;1.10;99.90
28530;DHT22;15737;49.760;6.632;2022-12-10T06:59:23;1.20;99.90
28530;DHT22;15737;49.760;6.632;2022-12-10T07:01:49;1.20;99.90
28530;DHT22;15737;49.760;6.632;2022-12-10T07:04:14;1.20;99.90
28530;DHT22;15737;49.760;6.632;2022-12-10T07:06:40;1.10;99.90
28530;DHT22;15737;49.760;6.632;2022-12-10T07:09:06;1.00;99.90
28530;DHT22;15737;49.760;6.632;2022-12-10T07:11:31;0.90;99.90
28530;DHT22;15737;49.760;6.632;2022-12-10T07:13:57;0.90;99.90
28530;DHT22;15737;49.760;6.632;2022-12-10T07:16:26;0.80;99.90
28530;DHT22;15737;49.760;6.632;2022-12-10T07:18:52;0.90;99.90
28530;DHT22;15737;49.760;6.632;2022-12-10T07:21:21;0.80;99.90
28530;DHT22;15737;49.760;6.632;2022-12-10T07:23:46;0.80;99.90
28530;DHT22;15737;49.760;6.632;2022-12-10T07:26:12;0.70;99.90
28530;DHT22;15737;49.760;6.632;2022-12-10T07:28:38;0.70;99.90
28530;DHT22;15737;49.760;6.632;2022-12-10T07:31:05;0.80;99.90
28530;DHT22;15737;49.760;6.632;2022-12-10T07:33:31;0.80;99.90
28530;DHT22;15737;49.760;6.632;2022-12-10T07:35:57;0.80;99.90
28530;DHT22;15737;49.760;6.632;2022-12-10T07:38:23;0.80;99.90
28530;DHT22;15737;49.760;6.632;2022-12-10T07:40:50;0.80;99.90
28530;DHT22;15737;49.760;6.632;2022-12-10T07:43:16;0.90;99.90
28530;DHT22;15737;49.760;6.632;2022-12-10T07:45:42;0.90;99.90
28530;DHT22;15737;49.760;6.632;2022-12-10T07:48:07;0.90;99.90
28530;DHT22;15737;49.760;6.632;2022-12-10T07:50:33;0.90;99.90
28530;DHT22;15737;49.760;6.632;2022-12-10T07:53:06;0.80;99.90
28530;DHT22;15737;49.760;6.632;2022-12-10T07:55:32;0.80;99.90
28530;DHT22;15737;49.760;6.632;2022-12-10T07:57:57;0.80;99.90
28530;DHT22;15737;49.760;6.632;2022-12-10T08:00:23;0.90;99.90
28530;DHT22;15737;49.760;6.632;2022-12-10T08:02:48;1.00;99.90
28530;DHT22;15737;49.760;6.632;2022-12-10T08:05:14;0.90;99.90
28530;DHT22;15737;49.760;6.632;2022-12-10T08:07:39;0.90;99.90
28530;DHT22;15737;49.760;6.632;2022-12-10T08:10:06;1.10;99.90
28530;DHT22;15737;49.760;6.632;2022-12-10T08:12:31;1.10;99.90
28530;DHT22;15737;49.760;6.632;2022-12-10T08:14:57;1.00;99.90
28530;DHT22;15737;49.760;6.632;2022-12-10T08:20:03;1.00;99.90
28530;DHT22;15737;49.760;6.632;2022-12-10T08:22:29;1.10;99.90
28530;DHT22;15737;49.760;6.632;2022-12-10T08:24:55;1.20;99.90
28530;DHT22;15737;49.760;6.632;2022-12-10T08:27:20;1.30;99.90
28530;DHT22;15737;49.760;6.632;2022-12-10T08:29:45;1.30;99.90
28530;DHT22;15737;49.760;6.632;2022-12-10T08:32:11;1.20;99.90
28530;DHT22;15737;49.760;6.632;2022-12-10T08:34:37;1.20;99.90
28530;DHT22;15737;49.760;6.632;2022-12-10T08:37:03;1.30;99.90
28530;DHT22;15737;49.760;6.632;2022-12-10T08:39:28;1.40;99.90
28530;DHT22;15737;49.760;6.632;2022-12-10T08:41:54;1.50;99.90
28530;DHT22;15737;49.760;6.632;2022-12-10T08:44:28;1.70;99.90
28530;DHT22;15737;49.760;6.632;2022-12-10T08:46:54;2.00;99.90
28530;DHT22;15737;49.760;6.632;2022-12-10T08:49:20;2.30;99.90
28530;DHT22;15737;49.760;6.632;2022-12-10T08:51:45;2.40;99.90
28530;DHT22;15737;49.760;6.632;2022-12-10T08:54:11;2.50;99.90
28530;DHT22;15737;49.760;6.632;2022-12-10T08:56:36;2.40;99.90
28530;DHT22;15737;49.760;6.632;2022-12-10T08:59:04;2.40;99.90
28530;DHT22;15737;49.760;6.632;2022-12-10T09:04:01;2.60;99.90
28530;DHT22;15737;49.760;6.632;2022-12-10T09:06:27;2.80;99.90
28530;DHT22;15737;49.760;6.632;2022-12-10T09:08:53;3.10;99.90
28530;DHT22;15737;49.760;6.632;2022-12-10T09:11:26;3.40;99.90
28530;DHT22;15737;49.760;6.632;2022-12-10T09:13:52;3.60;99.90
28530;DHT22;15737;49.760;6.632;2022-12-10T09:16:18;3.60;99.90
28530;DHT22;15737;49.760;6.632;2022-12-10T09:18:43;3.80;99.90
28530;DHT22;15737;49.760;6.632;2022-12-10T09:21:12;3.90;99.90
28530;DHT22;15737;49.760;6.632;2022-12-10T09:23:38;4.10;99.90
28530;DHT22;15737;49.760;6.632;2022-12-10T09:26:20;4.00;99.90
28530;DHT22;15737;49.760;6.632;2022-12-10T09:28:47;3.80;99.90
28530;DHT22;15737;49.760;6.632;2022-12-10T09:31:14;3.80;99.90
28530;DHT22;15737;49.760;6.632;2022-12-10T09:33:41;3.70;99.90
28530;DHT22;15737;49.760;6.632;2022-12-10T09:36:09;3.70;99.90
28530;DHT22;15737;49.760;6.632;2022-12-10T09:38:36;3.50;99.90
28530;DHT22;15737;49.760;6.632;2022-12-10T09:41:28;3.30;99.90
28530;DHT22;15737;49.760;6.632;2022-12-10T09:47:27;3.80;99.90
28530;DHT22;15737;49.760;6.632;2022-12-10T09:50:26;4.00;99.90
28530;DHT22;15737;49.760;6.632;2022-12-10T09:52:52;4.30;99.90
28530;DHT22;15737;49.760;6.632;2022-12-10T09:55:37;4.40;99.90
28530;DHT22;15737;49.760;6.632;2022-12-10T09:58:05;4.60;99.90
28530;DHT22;15737;49.760;6.632;2022-12-10T10:00:37;4.90;99.90
28530;DHT22;15737;49.760;6.632;2022-12-10T10:03:04;5.20;99.90
28530;DHT22;15737;49.760;6.632;2022-12-10T10:05:35;5.70;99.90
28530;DHT22;15737;49.760;6.632;2022-12-10T10:10:40;6.50;99.90
28530;DHT22;15737;49.760;6.632;2022-12-10T10:15:34;6.60;99.90
28530;DHT22;15737;49.760;6.632;2022-12-10T10:20:53;7.90;99.90
28530;DHT22;15737;49.760;6.632;2022-12-10T10:23:19;9.20;99.90
28530;DHT22;15737;49.760;6.632;2022-12-10T10:25:45;10.00;99.90
28530;DHT22;15737;49.760;6.632;2022-12-10T10:28:20;10.90;99.90
28530;DHT22;15737;49.760;6.632;2022-12-10T10:30:46;12.00;99.90
28530;DHT22;15737;49.760;6.632;2022-12-10T10:33:14;12.50;99.90
28530;DHT22;15737;49.760;6.632;2022-12-10T10:35:49;12.30;99.90
28530;DHT22;15737;49.760;6.632;2022-12-10T10:38:21;12.90;99.90
28530;DHT22;15737;49.760;6.632;2022-12-10T10:41:04;13.90;99.90
28530;DHT22;15737;49.760;6.632;2022-12-10T10:43:39;14.10;99.90
28530;DHT22;15737;49.760;6.632;2022-12-10T10:46:15;14.80;99.90
28530;DHT22;15737;49.760;6.632;2022-12-10T10:48:41;15.10;99.90
28530;DHT22;15737;49.760;6.632;2022-12-10T10:53:45;14.00;99.70
28530;DHT22;15737;49.760;6.632;2022-12-10T10:56:31;13.00;99.90
28530;DHT22;15737;49.760;6.632;2022-12-10T11:04:37;14.50;98.90
28530;DHT22;15737;49.760;6.632;2022-12-10T11:07:05;14.30;98.30
28530;DHT22;15737;49.760;6.632;2022-12-10T11:09:38;14.10;98.30
28530;DHT22;15737;49.760;6.632;2022-12-10T11:14:50;14.80;97.30
28530;DHT22;15737;49.760;6.632;2022-12-10T11:17:20;14.90;96.10
28530;DHT22;15737;49.760;6.632;2022-12-10T11:19:59;14.90;95.90
28530;DHT22;15737;49.760;6.632;2022-12-10T11:22:28;15.20;95.50
28530;DHT22;15737;49.760;6.632;2022-12-10T11:24:54;15.40;94.60
28530;DHT22;15737;49.760;6.632;2022-12-10T11:30:18;15.20;93.80
28530;DHT22;15737;49.760;6.632;2022-12-10T11:35:55;12.40;94.80
28530;DHT22;15737;49.760;6.632;2022-12-10T11:38:38;12.10;93.20
28530;DHT22;15737;49.760;6.632;2022-12-10T11:49:16;9.60;93.40
28530;DHT22;15737;49.760;6.632;2022-12-10T11:52:02;8.40;93.50
28530;DHT22;15737;49.760;6.632;2022-12-10T11:54:52;7.80;94.60
28530;DHT22;15737;49.760;6.632;2022-12-10T11:57:34;8.10;93.20
28530;DHT22;15737;49.760;6.632;2022-12-10T12:00:23;7.70;92.40
28530;DHT22;15737;49.760;6.632;2022-12-10T12:06:18;8.20;92.40
28530;DHT22;15737;49.760;6.632;2022-12-10T12:12:03;10.70;91.80
28530;DHT22;15737;49.760;6.632;2022-12-10T12:14:41;12.00;90.40
28530;DHT22;15737;49.760;6.632;2022-12-10T12:17:38;13.00;90.40
28530;DHT22;15737;49.760;6.632;2022-12-10T12:20:25;13.40;90.00
28530;DHT22;15737;49.760;6.632;2022-12-10T12:23:08;13.60;89.50
28530;DHT22;15737;49.760;6.632;2022-12-10T12:25:40;13.50;88.00
28530;DHT22;15737;49.760;6.632;2022-12-10T12:28:23;13.30;87.00
28530;DHT22;15737;49.760;6.632;2022-12-10T12:30:58;13.00;86.30
28530;DHT22;15737;49.760;6.632;2022-12-10T12:33:39;13.50;88.50
28530;DHT22;15737;49.760;6.632;2022-12-10T12:36:11;14.20;88.20
28530;DHT22;15737;49.760;6.632;2022-12-10T12:38:57;14.50;88.10
28530;DHT22;15737;49.760;6.632;2022-12-10T12:47:32;14.50;86.20
28530;DHT22;15737;49.760;6.632;2022-12-10T12:50:03;14.20;86.30
28530;DHT22;15737;49.760;6.632;2022-12-10T12:55:17;14.60;85.40
28530;DHT22;15737;49.760;6.632;2022-12-10T12:57:51;14.00;82.10
28530;DHT22;15737;49.760;6.632;2022-12-10T13:00:20;14.00;83.60
28530;DHT22;15737;49.760;6.632;2022-12-10T13:05:36;12.60;77.70
28530;DHT22;15737;49.760;6.632;2022-12-10T13:10:45;12.30;82.90
28530;DHT22;15737;49.760;6.632;2022-12-10T13:19:30;11.30;77.20
28530;DHT22;15737;49.760;6.632;2022-12-10T13:25:09;11.50;78.10
28530;DHT22;15737;49.760;6.632;2022-12-10T13:27:36;10.90;77.50
28530;DHT22;15737;49.760;6.632;2022-12-10T13:37:53;9.90;79.20
28530;DHT22;15737;49.760;6.632;2022-12-10T13:48:55;8.20;81.00
28530;DHT22;15737;49.760;6.632;2022-12-10T13:51:38;8.30;80.50
28530;DHT22;15737;49.760;6.632;2022-12-10T14:00:23;8.80;83.00
28530;DHT22;15737;49.760;6.632;2022-12-10T14:05:55;10.30;81.20
28530;DHT22;15737;49.760;6.632;2022-12-10T14:08:29;10.20;80.90
28530;DHT22;15737;49.760;6.632;2022-12-10T14:10:57;10.10;81.60
28530;DHT22;15737;49.760;6.632;2022-12-10T14:13:34;10.20;82.40
28530;DHT22;15737;49.760;6.632;2022-12-10T14:16:02;10.70;82.90
28530;DHT22;15737;49.760;6.632;2022-12-10T14:19:01;11.20;82.70
28530;DHT22;15737;49.760;6.632;2022-12-10T14:21:46;11.70;82.10
28530;DHT22;15737;49.760;6.632;2022-12-10T14:24:30;11.50;80.70
28530;DHT22;15737;49.760;6.632;2022-12-10T14:27:00;10.50;79.20
28530;DHT22;15737;49.760;6.632;2022-12-10T14:29:25;9.20;81.00
28530;DHT22;15737;49.760;6.632;2022-12-10T14:31:51;8.40;82.60
28530;DHT22;15737;49.760;6.632;2022-12-10T14:34:26;7.60;83.30
28530;DHT22;15737;49.760;6.632;2022-12-10T14:36:55;7.10;85.10
28530;DHT22;15737;49.760;6.632;2022-12-10T14:39:26;6.60;85.30
28530;DHT22;15737;49.760;6.632;2022-12-10T14:41:56;6.20;86.40
28530;DHT22;15737;49.760;6.632;2022-12-10T14:44:22;5.40;86.70
28530;DHT22;15737;49.760;6.632;2022-12-10T14:46:49;4.60;88.30
28530;DHT22;15737;49.760;6.632;2022-12-10T14:54:33;3.10;91.10
28530;DHT22;15737;49.760;6.632;2022-12-10T14:57:04;2.80;91.50
28530;DHT22;15737;49.760;6.632;2022-12-10T14:59:36;2.40;92.00
28530;DHT22;15737;49.760;6.632;2022-12-10T15:02:15;2.20;92.50
28530;DHT22;15737;49.760;6.632;2022-12-10T15:04:45;1.90;92.90
28530;DHT22;15737;49.760;6.632;2022-12-10T15:07:14;1.70;93.50
28530;DHT22;15737;49.760;6.632;2022-12-10T15:09:42;1.50;94.10
28530;DHT22;15737;49.760;6.632;2022-12-10T15:12:38;1.30;94.50
28530;DHT22;15737;49.760;6.632;2022-12-10T15:15:18;1.10;94.90
28530;DHT22;15737;49.760;6.632;2022-12-10T15:20:48;0.80;95.50
28530;DHT22;15737;49.760;6.632;2022-12-10T15:25:50;0.50;96.30
28530;DHT22;15737;49.760;6.632;2022-12-10T15:28:49;0.30;97.00
28530;DHT22;15737;49.760;6.632;2022-12-10T15:33:52;0.00;98.40
28530;DHT22;15737;49.760;6.632;2022-12-10T15:36:39;-0.10;99.10
28530;DHT22;15737;49.760;6.632;2022-12-10T15:42:00;-0.40;99.90
28530;DHT22;15737;49.760;6.632;2022-12-10T15:49:23;-0.80;99.90
28530;DHT22;15737;49.760;6.632;2022-12-10T15:51:57;-0.90;99.90
28530;DHT22;15737;49.760;6.632;2022-12-10T15:54:32;-1.00;99.90
28530;DHT22;15737;49.760;6.632;2022-12-10T15:56:58;-1.00;99.90
28530;DHT22;15737;49.760;6.632;2022-12-10T15:59:23;-1.00;99.90
28530;DHT22;15737;49.760;6.632;2022-12-10T16:01:49;-1.10;99.90
28530;DHT22;15737;49.760;6.632;2022-12-10T16:04:14;-1.20;99.90
28530;DHT22;15737;49.760;6.632;2022-12-10T16:06:53;-1.20;99.90
28530;DHT22;15737;49.760;6.632;2022-12-10T16:09:19;-1.30;99.90
28530;DHT22;15737;49.760;6.632;2022-12-10T16:11:44;-1.30;99.90
28530;DHT22;15737;49.760;6.632;2022-12-10T16:14:11;-1.40;99.90
28530;DHT22;15737;49.760;6.632;2022-12-10T16:16:38;-1.40;99.90
28530;DHT22;15737;49.760;6.632;2022-12-10T16:19:10;-1.50;99.90
28530;DHT22;15737;49.760;6.632;2022-12-10T16:21:35;-1.50;99.90
28530;DHT22;15737;49.760;6.632;2022-12-10T16:24:01;-1.50;99.90
28530;DHT22;15737;49.760;6.632;2022-12-10T16:26:26;-1.60;99.90
28530;DHT22;15737;49.760;6.632;2022-12-10T16:28:52;-1.60;99.90
28530;DHT22;15737;49.760;6.632;2022-12-10T16:31:19;-1.70;99.90
28530;DHT22;15737;49.760;6.632;2022-12-10T16:36:19;-1.80;99.90
28530;DHT22;15737;49.760;6.632;2022-12-10T16:38:45;-1.80;99.90
28530;DHT22;15737;49.760;6.632;2022-12-10T16:41:21;-1.80;99.90
28530;DHT22;15737;49.760;6.632;2022-12-10T16:43:47;-1.90;99.90
28530;DHT22;15737;49.760;6.632;2022-12-10T16:46:13;-1.90;99.90
28530;DHT22;15737;49.760;6.632;2022-12-10T16:48:39;-1.90;99.90
28530;DHT22;15737;49.760;6.632;2022-12-10T16:51:13;-1.90;99.90
28530;DHT22;15737;49.760;6.632;2022-12-10T16:53:39;-1.90;99.90
28530;DHT22;15737;49.760;6.632;2022-12-10T16:56:09;-1.90;99.90
28530;DHT22;15737;49.760;6.632;2022-12-10T16:58:35;-1.90;99.90
28530;DHT22;15737;49.760;6.632;2022-12-10T17:01:00;-1.90;99.90
28530;DHT22;15737;49.760;6.632;2022-12-10T17:03:26;-1.90;99.90
28530;DHT22;15737;49.760;6.632;2022-12-10T17:06:05;-1.90;99.90
28530;DHT22;15737;49.760;6.632;2022-12-10T17:08:31;-1.90;99.90
28530;DHT22;15737;49.760;6.632;2022-12-10T17:10:57;-1.90;99.90
28530;DHT22;15737;49.760;6.632;2022-12-10T17:13:42;-1.90;99.90
28530;DHT22;15737;49.760;6.632;2022-12-10T17:16:17;-1.90;99.90
28530;DHT22;15737;49.760;6.632;2022-12-10T17:18:43;-1.90;99.90
28530;DHT22;15737;49.760;6.632;2022-12-10T17:21:09;-1.90;99.90
28530;DHT22;15737;49.760;6.632;2022-12-10T17:23:35;-1.90;99.90
28530;DHT22;15737;49.760;6.632;2022-12-10T17:26:00;-2.00;99.90
28530;DHT22;15737;49.760;6.632;2022-12-10T17:28:26;-1.90;99.90
28530;DHT22;15737;49.760;6.632;2022-12-10T17:30:52;-2.00;99.90
28530;DHT22;15737;49.760;6.632;2022-12-10T17:33:22;-2.00;99.90
28530;DHT22;15737;49.760;6.632;2022-12-10T17:36:00;-2.00;99.90
28530;DHT22;15737;49.760;6.632;2022-12-10T17:38:25;-2.10;99.90
28530;DHT22;15737;49.760;6.632;2022-12-10T17:40:52;-2.10;99.90
28530;DHT22;15737;49.760;6.632;2022-12-10T17:43:18;-2.10;99.90
28530;DHT22;15737;49.760;6.632;2022-12-10T17:45:45;-2.00;99.90
28530;DHT22;15737;49.760;6.632;2022-12-10T17:48:15;-2.00;99.90
28530;DHT22;15737;49.760;6.632;2022-12-10T17:50:42;-2.00;99.90
28530;DHT22;15737;49.760;6.632;2022-12-10T17:53:09;-2.00;99.90
28530;DHT22;15737;49.760;6.632;2022-12-10T17:55:40;-2.00;99.90
28530;DHT22;15737;49.760;6.632;2022-12-10T17:58:06;-2.20;99.90
28530;DHT22;15737;49.760;6.632;2022-12-10T18:03:03;-2.30;99.90
28530;DHT22;15737;49.760;6.632;2022-12-10T18:05:29;-2.30;99.90
28530;DHT22;15737;49.760;6.632;2022-12-10T18:07:55;-2.30;99.90
28530;DHT22;15737;49.760;6.632;2022-12-10T18:10:24;-2.40;99.90
28530;DHT22;15737;49.760;6.632;2022-12-10T18:12:50;-2.40;99.90
28530;DHT22;15737;49.760;6.632;2022-12-10T18:15:36;-2.40;99.90
28530;DHT22;15737;49.760;6.632;2022-12-10T18:18:02;-2.40;99.90
28530;DHT22;15737;49.760;6.632;2022-12-10T18:20:30;-2.50;99.90
28530;DHT22;15737;49.760;6.632;2022-12-10T18:22:58;-2.50;99.90